createdAt,value
2018-08-14T00:00:34.442Z,5.83
2018-08-14T00:03:06.890Z,5.93
2018-08-14T00:05:36.127Z,6.77
2018-08-14T00:08:05.394Z,6.60
2018-08-14T00:10:34.776Z,7.83
2018-08-14T00:13:04.020Z,6.67
2018-08-14T00:15:33.255Z,5.67
2018-08-14T00:18:02.496Z,5.60
2018-08-14T00:20:31.729Z,5.10
2018-08-14T00:23:00.982Z,5.30
2018-08-14T00:25:30.214Z,5.80
2018-08-14T00:27:59.462Z,5.90
2018-08-14T00:30:29.809Z,7.13
2018-08-14T00:33:00.307Z,7.47
2018-08-14T00:35:29.704Z,6.63
2018-08-14T00:37:59.016Z,5.55
2018-08-14T00:40:30.033Z,6.13
2018-08-14T00:43:01.429Z,5.27
2018-08-14T00:45:30.708Z,5.07
2018-08-14T00:47:59.971Z,5.07
2018-08-14T00:50:29.234Z,5.33
2018-08-14T00:52:58.477Z,4.43
2018-08-14T00:55:27.725Z,4.07
2018-08-14T00:57:56.964Z,3.10
2018-08-14T01:00:33.679Z,3.77
2018-08-14T01:03:02.905Z,3.40
2018-08-14T01:05:32.132Z,3.30
2018-08-14T01:08:01.367Z,3.60
2018-08-14T01:10:30.583Z,3.63
2018-08-14T01:12:59.838Z,4.30
2018-08-14T01:15:30.294Z,3.80
2018-08-14T01:17:59.754Z,3.70
2018-08-14T01:20:31.350Z,3.90
2018-08-14T01:23:01.154Z,3.83
2018-08-14T01:25:31.991Z,3.60
2018-08-14T01:28:01.223Z,3.57
2018-08-14T01:30:31.315Z,3.70
2018-08-14T01:33:00.604Z,3.70
2018-08-14T01:35:29.822Z,3.30
2018-08-14T01:37:59.047Z,4.57
2018-08-14T01:40:28.430Z,4.03
2018-08-14T01:42:57.662Z,4.13
2018-08-14T01:45:26.882Z,4.23
2018-08-14T01:47:56.115Z,4.30
2018-08-14T01:50:27.590Z,4.30
2018-08-14T01:52:56.861Z,3.50
2018-08-14T01:55:26.230Z,3.87
2018-08-14T01:57:56.048Z,3.30
2018-08-14T02:00:26.238Z,3.10
2018-08-14T02:02:55.494Z,3.10
2018-08-14T02:05:24.702Z,2.90
2018-08-14T02:07:53.923Z,3.13
2018-08-14T02:10:23.970Z,2.58
2018-08-14T02:12:53.210Z,2.67
2018-08-14T02:15:22.439Z,2.90
2018-08-14T02:17:51.675Z,3.00
2018-08-14T02:20:24.239Z,3.03
2018-08-14T02:22:55.341Z,3.30
2018-08-14T02:25:24.669Z,2.87
2018-08-14T02:27:54.045Z,3.30
2018-08-14T02:30:23.247Z,3.10
2018-08-14T02:32:52.495Z,3.17
2018-08-14T02:35:21.750Z,3.00
2018-08-14T02:37:50.988Z,3.90
2018-08-14T02:40:21.798Z,3.17
2018-08-14T02:42:52.025Z,2.93
2018-08-14T02:45:21.477Z,3.00
2018-08-14T02:47:51.020Z,3.12
2018-08-14T02:50:20.306Z,2.73
2018-08-14T02:52:49.568Z,3.12
2018-08-14T02:55:23.156Z,2.87
2018-08-14T02:57:52.389Z,3.03
2018-08-14T03:00:25.519Z,2.83
2018-08-14T03:02:55.002Z,3.17
2018-08-14T03:05:24.243Z,3.40
2018-08-14T03:07:53.475Z,3.20
2018-08-14T03:10:22.697Z,3.47
2018-08-14T03:12:51.928Z,3.40
2018-08-14T03:15:22.336Z,3.70
2018-08-14T03:17:53.658Z,3.40
2018-08-14T03:20:22.947Z,3.40
2018-08-14T03:22:52.535Z,3.47
2018-08-14T03:25:21.828Z,2.90
2018-08-14T03:27:51.240Z,2.83
2018-08-14T03:30:20.532Z,3.30
2018-08-14T03:32:49.735Z,3.00
2018-08-14T03:35:18.961Z,3.50
2018-08-14T03:37:48.197Z,3.60
2018-08-14T03:40:18.919Z,3.33
2018-08-14T03:42:49.135Z,3.43
2018-08-14T03:45:18.537Z,3.37
2018-08-14T03:47:47.747Z,3.23
2018-08-14T03:50:16.989Z,3.27
2018-08-14T03:52:47.101Z,3.10
2018-08-14T03:55:18.375Z,3.27
2018-08-14T03:57:47.623Z,3.40
2018-08-14T04:00:18.643Z,3.30
2018-08-14T04:02:47.890Z,3.57
2018-08-14T04:05:17.118Z,3.00
2018-08-14T04:07:46.350Z,3.10
2018-08-14T04:10:15.751Z,3.27
2018-08-14T04:12:45.008Z,3.20
2018-08-14T04:15:14.964Z,3.00
2018-08-14T04:17:44.181Z,2.80
2018-08-14T04:20:14.095Z,3.30
2018-08-14T04:22:43.383Z,2.60
2018-08-14T04:25:12.756Z,2.73
2018-08-14T04:27:42.023Z,2.60
2018-08-14T04:30:14.081Z,2.77
2018-08-14T04:32:45.366Z,2.80
2018-08-14T04:35:15.221Z,2.90
2018-08-14T04:37:45.274Z,2.90
2018-08-14T04:40:14.511Z,2.83
2018-08-14T04:42:43.992Z,2.97
2018-08-14T04:45:13.600Z,3.00
2018-08-14T04:47:42.839Z,2.87
2018-08-14T04:50:13.598Z,2.50
2018-08-14T04:52:43.058Z,2.80
2018-08-14T04:55:12.770Z,2.73
2018-08-14T04:57:42.447Z,2.80
2018-08-14T05:00:14.871Z,2.50
2018-08-14T05:02:44.854Z,2.40
2018-08-14T05:05:14.935Z,2.50
2018-08-14T05:07:44.268Z,2.30
2018-08-14T05:10:14.912Z,2.20
2018-08-14T05:12:44.862Z,2.50
2018-08-14T05:15:14.131Z,2.35
2018-08-14T05:17:43.327Z,2.40
2018-08-14T05:20:13.672Z,2.60
2018-08-14T05:22:43.431Z,2.47
2018-08-14T05:25:12.741Z,2.60
2018-08-14T05:27:41.978Z,2.60
2018-08-14T05:30:14.365Z,2.40
2018-08-14T05:32:43.627Z,2.50
2018-08-14T05:35:13.099Z,2.50
2018-08-14T05:37:42.587Z,2.65
2018-08-14T05:40:12.590Z,2.40
2018-08-14T05:42:41.798Z,2.93
2018-08-14T05:45:13.564Z,2.67
2018-08-14T05:47:42.806Z,2.63
2018-08-14T05:50:14.734Z,2.62
2018-08-14T05:52:44.014Z,2.40
2018-08-14T05:55:13.231Z,2.15
2018-08-14T05:57:42.814Z,2.60
2018-08-14T06:00:16.130Z,2.40
2018-08-14T06:02:45.415Z,2.67
2018-08-14T06:05:15.216Z,2.20
2018-08-14T06:07:44.446Z,2.05
2018-08-14T06:10:13.756Z,2.22
2018-08-14T06:12:42.939Z,2.43
2018-08-14T06:15:13.730Z,3.42
2018-08-14T06:17:43.254Z,2.20
2018-08-14T06:20:13.787Z,1.85
2018-08-14T06:22:43.477Z,1.98
2018-08-14T06:25:12.900Z,2.10
2018-08-14T06:27:42.163Z,2.67
2018-08-14T06:30:16.883Z,1.82
2018-08-14T06:32:46.897Z,2.10
2018-08-14T06:35:16.204Z,2.00
2018-08-14T06:37:45.339Z,1.90
2018-08-14T06:40:16.908Z,1.90
2018-08-14T06:42:46.254Z,1.70
2018-08-14T06:45:16.580Z,2.30
2018-08-14T06:47:45.893Z,2.00
2018-08-14T06:50:17.386Z,1.60
2018-08-14T06:52:46.662Z,1.97
2018-08-14T06:55:16.796Z,1.90
2018-08-14T06:57:46.544Z,1.80
2018-08-14T07:00:18.032Z,2.20
2018-08-14T07:02:47.858Z,2.00
2018-08-14T07:05:17.145Z,2.10
2018-08-14T07:07:46.333Z,2.00
2018-08-14T07:10:15.566Z,1.72
2018-08-14T07:12:44.783Z,2.40
2018-08-14T07:15:18.894Z,1.67
2018-08-14T07:17:48.255Z,1.52
2018-08-14T07:20:17.503Z,1.70
2018-08-14T07:22:46.939Z,1.60
2018-08-14T07:25:17.883Z,1.42
2018-08-14T07:27:47.108Z,1.50
2018-08-14T07:30:20.517Z,1.50
2018-08-14T07:32:50.020Z,1.60
2018-08-14T07:35:19.283Z,1.43
2018-08-14T07:37:48.803Z,1.42
2018-08-14T07:40:18.077Z,2.00
2018-08-14T07:42:47.335Z,1.65
2018-08-14T07:45:17.543Z,1.80
2018-08-14T07:47:46.777Z,2.05
2018-08-14T07:50:16.290Z,1.50
2018-08-14T07:52:45.903Z,1.55
2018-08-14T07:55:15.303Z,1.80
2018-08-14T07:57:44.570Z,1.60
2018-08-14T08:00:16.787Z,1.60
2018-08-14T08:02:46.638Z,1.30
2018-08-14T08:05:16.908Z,1.46
2018-08-14T08:07:46.131Z,1.20
2018-08-14T08:10:16.206Z,1.60
2018-08-14T08:12:45.478Z,1.60
2018-08-14T08:15:16.232Z,1.50
2018-08-14T08:17:45.906Z,1.50
2018-08-14T08:20:27.030Z,1.47
2018-08-14T08:22:56.283Z,1.50
2018-08-14T08:25:26.461Z,1.30
2018-08-14T08:27:56.116Z,1.50
2018-08-14T08:30:25.528Z,1.60
2018-08-14T08:32:54.750Z,1.80
2018-08-14T08:35:24.361Z,1.80
2018-08-14T08:37:53.594Z,1.40
2018-08-14T08:40:22.937Z,1.42
2018-08-14T08:42:52.163Z,1.90
2018-08-14T08:45:21.390Z,1.80
2018-08-14T08:47:55.168Z,2.02
2018-08-14T08:50:24.977Z,1.82
2018-08-14T08:52:54.198Z,1.80
2018-08-14T08:55:23.428Z,1.90
2018-08-14T08:57:52.655Z,1.70
2018-08-14T09:00:21.879Z,1.20
2018-08-14T09:02:51.094Z,1.27
2018-08-14T09:05:20.315Z,1.40
2018-08-14T09:07:49.571Z,1.57
2018-08-14T09:10:18.796Z,1.43
2018-08-14T09:12:48.071Z,1.50
2018-08-14T09:15:17.296Z,1.40
2018-08-14T09:17:46.580Z,1.60
2018-08-14T09:20:16.163Z,1.47
2018-08-14T09:22:45.405Z,1.43
2018-08-14T09:25:15.801Z,1.80
2018-08-14T09:27:46.222Z,1.70
2018-08-14T09:30:18.710Z,1.40
2018-08-14T09:32:48.011Z,1.30
2018-08-14T09:35:18.420Z,1.40
2018-08-14T09:37:47.658Z,1.27
2018-08-14T09:40:19.757Z,1.40
2018-08-14T09:42:51.102Z,1.30
2018-08-14T09:45:20.370Z,1.45
2018-08-14T09:47:49.611Z,1.40
2018-08-14T09:50:21.983Z,1.60
2018-08-14T09:52:51.260Z,1.50
2018-08-14T09:55:21.233Z,1.50
2018-08-14T09:57:52.644Z,1.57
2018-08-14T10:00:32.485Z,1.37
2018-08-14T10:03:24.287Z,1.20
2018-08-14T10:05:58.604Z,1.40
2018-08-14T10:08:27.814Z,1.30
2018-08-14T10:10:57.046Z,1.50
2018-08-14T10:13:26.332Z,1.60
2018-08-14T10:15:55.575Z,1.30
2018-08-14T10:18:26.021Z,1.53
2018-08-14T10:20:55.387Z,1.30
2018-08-14T10:23:26.383Z,1.47
2018-08-14T10:25:55.611Z,1.40
2018-08-14T10:28:25.592Z,1.60
2018-08-14T10:30:55.070Z,1.30
2018-08-14T10:33:24.298Z,1.20
2018-08-14T10:35:53.514Z,1.40
2018-08-14T10:38:22.770Z,1.25
2018-08-14T10:40:51.994Z,1.40
2018-08-14T10:43:21.224Z,1.35
2018-08-14T10:45:50.453Z,1.10
2018-08-14T10:48:19.683Z,1.53
2018-08-14T10:50:50.138Z,1.47
2018-08-14T10:53:19.362Z,1.20
2018-08-14T10:55:48.603Z,1.30
2018-08-14T10:58:17.827Z,1.20
2018-08-14T11:00:47.059Z,1.30
2018-08-14T11:03:16.312Z,1.40
2018-08-14T11:05:46.176Z,1.50
2018-08-14T11:08:15.451Z,1.30
2018-08-14T11:10:49.754Z,1.50
2018-08-14T11:13:18.970Z,2.00
2018-08-14T11:15:48.196Z,1.77
2018-08-14T11:18:17.421Z,2.30
2018-08-14T11:20:46.615Z,2.17
2018-08-14T11:23:15.875Z,1.80
2018-08-14T11:25:45.071Z,1.90
2018-08-14T11:28:14.315Z,2.00
2018-08-14T11:30:43.552Z,1.92
2018-08-14T11:33:12.803Z,1.80
2018-08-14T11:35:47.131Z,2.17
2018-08-14T11:38:16.355Z,1.97
2018-08-14T11:40:45.563Z,2.15
2018-08-14T11:43:14.783Z,2.17
2018-08-14T11:45:44.016Z,2.03
2018-08-14T11:48:13.245Z,1.90
2018-08-14T11:50:42.465Z,2.23
2018-08-14T11:53:11.704Z,1.90
2018-08-14T11:55:40.947Z,2.00
2018-08-14T11:58:10.172Z,1.77
2018-08-14T12:00:39.403Z,1.77
2018-08-14T12:03:08.739Z,1.82
2018-08-14T12:05:37.978Z,1.85
2018-08-14T12:08:07.234Z,2.22
2018-08-14T12:10:36.479Z,2.00
2018-08-14T12:13:05.818Z,1.90
2018-08-14T12:15:35.055Z,1.60
2018-08-14T12:18:04.282Z,1.70
2018-08-14T12:20:33.491Z,1.40
2018-08-14T12:23:02.765Z,1.50
2018-08-14T12:25:31.995Z,1.63
2018-08-14T12:28:01.240Z,1.80
2018-08-14T12:30:30.481Z,1.52
2018-08-14T12:32:59.697Z,1.67
2018-08-14T12:35:28.891Z,1.63
2018-08-14T12:37:58.178Z,1.80
2018-08-14T12:40:27.394Z,1.40
2018-08-14T12:42:56.622Z,1.82
2018-08-14T12:45:25.827Z,1.70
2018-08-14T12:47:55.095Z,1.80
2018-08-14T12:50:24.332Z,1.50
2018-08-14T12:52:53.738Z,1.50
2018-08-14T12:55:22.964Z,1.50
2018-08-14T12:57:52.489Z,1.50
2018-08-14T13:00:26.669Z,1.80
2018-08-14T13:02:56.243Z,1.50
2018-08-14T13:05:26.085Z,1.70
2018-08-14T13:07:55.497Z,1.37
2018-08-14T13:10:24.735Z,1.47
2018-08-14T13:12:53.976Z,1.60
2018-08-14T13:15:23.246Z,1.60
2018-08-14T13:18:07.323Z,1.42
2018-08-14T13:20:36.612Z,1.53
2018-08-14T13:23:07.719Z,1.70
2018-08-14T13:25:36.942Z,1.90
2018-08-14T13:28:06.930Z,1.72
2018-08-14T13:30:36.161Z,1.90
2018-08-14T13:33:05.412Z,2.00
2018-08-14T13:35:34.673Z,1.80
2018-08-14T13:38:03.947Z,1.98
2018-08-14T13:40:33.167Z,1.85
2018-08-14T13:43:02.395Z,1.90
2018-08-14T13:45:31.601Z,1.82
2018-08-14T13:48:00.886Z,2.05
2018-08-14T13:50:30.110Z,1.80
2018-08-14T13:52:59.347Z,1.50
2018-08-14T13:55:28.614Z,1.87
2018-08-14T13:57:57.951Z,1.90
2018-08-14T14:00:28.543Z,1.90
2018-08-14T14:02:57.750Z,1.60
2018-08-14T14:05:26.990Z,1.67
2018-08-14T14:07:56.712Z,1.90
2018-08-14T14:10:26.076Z,1.63
2018-08-14T14:12:55.290Z,1.85
2018-08-14T14:15:25.723Z,2.10
2018-08-14T14:17:55.728Z,2.30
2018-08-14T14:20:27.437Z,2.10
2018-08-14T14:22:56.665Z,1.60
2018-08-14T14:25:25.969Z,1.90
2018-08-14T14:27:55.173Z,1.60
2018-08-14T14:30:24.435Z,1.80
2018-08-14T14:32:53.723Z,1.70
2018-08-14T14:35:22.955Z,2.00
2018-08-14T14:37:52.168Z,2.00
2018-08-14T14:40:24.143Z,1.42
2018-08-14T14:42:56.843Z,1.57
2018-08-14T14:45:26.074Z,1.80
2018-08-14T14:47:55.333Z,1.90
2018-08-14T14:50:24.583Z,2.00
2018-08-14T14:52:53.783Z,1.57
2018-08-14T14:55:23.806Z,1.77
2018-08-14T14:57:53.472Z,1.77
2018-08-14T15:00:23.787Z,2.10
2018-08-14T15:02:54.561Z,2.20
2018-08-14T15:05:24.318Z,1.77
2018-08-14T15:07:53.555Z,2.40
2018-08-14T15:10:22.890Z,2.20
2018-08-14T15:12:52.120Z,2.27
2018-08-14T15:15:21.338Z,1.80
2018-08-14T15:17:51.359Z,1.60
2018-08-14T15:20:23.117Z,2.00
2018-08-14T15:22:53.606Z,1.80
2018-08-14T15:25:23.796Z,2.05
2018-08-14T15:29:02.572Z,1.70
2018-08-14T15:31:32.098Z,1.90
2018-08-14T15:34:01.943Z,1.60
2018-08-14T15:36:32.943Z,1.45
2018-08-14T15:39:03.452Z,1.60
2018-08-14T15:41:32.834Z,1.40
2018-08-14T15:44:02.089Z,1.37
2018-08-14T15:46:31.307Z,1.40
2018-08-14T15:49:00.535Z,1.27
2018-08-14T15:51:29.776Z,1.20
2018-08-14T15:53:59.048Z,1.10
2018-08-14T15:56:28.223Z,0.90
2018-08-14T15:58:57.456Z,1.20
2018-08-14T16:01:29.205Z,1.20
2018-08-14T16:03:58.700Z,1.30
2018-08-14T16:06:27.966Z,1.20
2018-08-14T16:08:57.246Z,1.30
2018-08-14T16:11:26.561Z,1.20
2018-08-14T16:13:55.907Z,1.40
2018-08-14T16:16:25.182Z,1.10
2018-08-14T16:18:54.455Z,1.22
2018-08-14T16:21:23.710Z,1.30
2018-08-14T16:23:52.965Z,1.10
2018-08-14T16:26:22.215Z,1.00
2018-08-14T16:28:51.446Z,1.30
2018-08-14T16:31:20.675Z,1.30
2018-08-14T16:33:49.966Z,1.10
2018-08-14T16:36:19.216Z,1.13
2018-08-14T16:38:48.459Z,1.40
2018-08-14T16:41:17.686Z,1.20
2018-08-14T16:43:46.959Z,1.20
2018-08-14T16:46:16.179Z,1.30
2018-08-14T16:48:45.396Z,1.10
2018-08-14T16:51:14.652Z,1.30
2018-08-14T16:53:49.057Z,1.30
2018-08-14T16:56:18.271Z,1.10
2018-08-14T16:58:47.650Z,1.10
2018-08-14T17:01:17.070Z,1.40
2018-08-14T17:03:46.329Z,1.40
2018-08-14T17:06:19.464Z,1.20
2018-08-14T17:08:48.774Z,1.20
2018-08-14T17:11:18.023Z,1.30
2018-08-14T17:13:47.229Z,1.40
2018-08-14T17:16:16.463Z,1.67
2018-08-14T17:18:45.700Z,1.37
2018-08-14T17:21:13.415Z,1.80
2018-08-14T17:23:42.610Z,5.85
2018-08-14T17:26:11.842Z,2.50
2018-08-14T17:28:41.059Z,1.45
2018-08-14T17:31:10.404Z,1.50
2018-08-14T17:33:39.643Z,1.40
2018-08-14T17:36:09.111Z,1.50
2018-08-14T17:38:38.335Z,1.32
2018-08-14T17:41:07.555Z,1.30
2018-08-14T17:43:36.797Z,1.40
2018-08-14T17:46:06.066Z,1.72
2018-08-14T17:48:35.312Z,2.00
2018-08-14T17:51:04.526Z,2.10
2018-08-14T17:53:33.751Z,2.00
2018-08-14T17:56:02.966Z,2.12
2018-08-14T17:58:32.200Z,2.10
2018-08-14T18:01:01.411Z,1.87
2018-08-14T18:03:30.611Z,1.40
2018-08-14T18:05:59.828Z,1.52
2018-08-14T18:08:29.040Z,1.30
2018-08-14T18:10:58.274Z,1.30
2018-08-14T18:13:27.494Z,1.30
2018-08-14T18:15:56.723Z,1.50
2018-08-14T18:18:25.963Z,1.00
2018-08-14T18:20:55.192Z,1.62
2018-08-14T18:23:24.453Z,1.40
2018-08-14T18:25:53.673Z,1.40
2018-08-14T18:28:22.890Z,1.70
2018-08-14T18:30:52.099Z,1.60
2018-08-14T18:33:21.424Z,1.55
2018-08-14T18:35:50.561Z,1.40
2018-08-14T18:38:19.799Z,1.40
2018-08-14T18:40:49.080Z,1.67
2018-08-14T18:43:18.334Z,1.30
2018-08-14T18:45:47.539Z,1.47
2018-08-14T18:48:17.011Z,1.60
2018-08-14T18:50:46.239Z,1.50
2018-08-14T18:53:16.752Z,1.30
2018-08-14T18:55:45.985Z,1.60
2018-08-14T18:58:15.198Z,1.60
2018-08-14T19:00:44.515Z,1.55
2018-08-14T19:03:13.721Z,1.75
2018-08-14T19:05:42.956Z,1.70
2018-08-14T19:08:12.465Z,2.27
2018-08-14T19:10:41.659Z,2.47
2018-08-14T19:13:11.854Z,2.70
2018-08-14T19:15:41.076Z,2.20
2018-08-14T19:18:12.020Z,1.57
2018-08-14T19:20:41.246Z,1.75
2018-08-14T19:23:10.466Z,1.60
2018-08-14T19:25:39.685Z,1.73
2018-08-14T19:28:08.899Z,1.97
2018-08-14T19:30:39.118Z,1.46
2018-08-14T19:33:08.530Z,1.60
2018-08-14T19:35:37.756Z,1.63
2018-08-14T19:38:06.955Z,1.60
2018-08-14T19:40:36.182Z,1.70
2018-08-14T19:43:05.471Z,1.60
2018-08-14T19:45:34.648Z,1.80
2018-08-14T19:48:04.111Z,1.90
2018-08-14T19:50:33.400Z,1.90
2018-08-14T19:53:02.626Z,2.30
2018-08-14T19:55:31.906Z,1.83
2018-08-14T19:58:01.148Z,1.63
2018-08-14T20:00:30.507Z,1.50
2018-08-14T20:02:59.878Z,1.50
2018-08-14T20:05:29.057Z,1.60
2018-08-14T20:07:58.294Z,1.83
2018-08-14T20:10:27.631Z,2.00
2018-08-14T20:12:56.896Z,1.65
2018-08-14T20:15:31.454Z,1.83
2018-08-14T20:18:00.748Z,2.00
2018-08-14T20:20:30.067Z,2.40
2018-08-14T20:22:59.312Z,2.10
2018-08-14T20:25:28.535Z,1.90
2018-08-14T20:27:57.791Z,2.10
2018-08-14T20:35:25.798Z,2.77
2018-08-14T20:37:55.060Z,2.53
2018-08-14T20:40:24.386Z,2.30
2018-08-14T20:42:54.517Z,1.73
2018-08-14T20:45:23.796Z,1.87
2018-08-14T20:47:53.027Z,2.10
2018-08-14T20:50:22.255Z,2.03
2018-08-14T20:52:51.563Z,1.90
2018-08-14T20:55:21.859Z,1.90
2018-08-14T20:57:51.161Z,2.00
2018-08-14T21:00:24.830Z,2.00
2018-08-14T21:02:54.625Z,2.07
2018-08-14T21:05:24.985Z,2.08
2018-08-14T21:07:54.358Z,1.90
2018-08-14T21:10:23.578Z,2.10
2018-08-14T21:12:52.802Z,1.97
2018-08-14T21:15:27.265Z,2.20
2018-08-14T21:18:27.147Z,2.33
2018-08-14T21:20:56.555Z,2.55
2018-08-14T21:23:25.782Z,2.30
2018-08-14T21:25:55.093Z,2.40
2018-08-14T21:28:24.294Z,2.30
2018-08-14T21:30:53.503Z,2.23
2018-08-14T21:33:22.734Z,2.20
2018-08-14T21:35:51.966Z,2.33
2018-08-14T21:38:21.194Z,2.63
2018-08-14T21:40:50.410Z,2.37
2018-08-14T21:43:19.623Z,2.23
2018-08-14T21:45:48.861Z,2.00
2018-08-14T21:48:18.082Z,2.30
2018-08-14T21:50:47.301Z,2.07
2018-08-14T21:53:16.531Z,2.20
2018-08-14T21:55:45.760Z,2.37
2018-08-14T21:58:15.023Z,2.00
2018-08-14T22:01:08.980Z,2.75
2018-08-14T22:03:40.483Z,2.27
2018-08-14T22:06:10.680Z,2.10
2018-08-14T22:08:40.010Z,2.27
2018-08-14T22:11:09.483Z,2.40
2018-08-14T22:13:38.782Z,2.00
2018-08-14T22:16:08.184Z,2.00
2018-08-14T22:18:37.399Z,2.07
2018-08-14T22:21:07.896Z,2.40
2018-08-14T22:23:37.106Z,2.20
2018-08-14T22:26:06.322Z,2.20
2018-08-14T22:28:35.571Z,2.10
2018-08-14T22:31:04.816Z,2.10
2018-08-14T22:33:34.026Z,1.85
2018-08-14T22:36:03.257Z,2.15
2018-08-14T22:38:32.471Z,2.40
2018-08-14T22:41:01.708Z,2.10
2018-08-14T22:43:30.938Z,2.13
2018-08-14T22:46:00.142Z,2.20
2018-08-14T22:48:29.395Z,2.07
2018-08-14T22:50:58.906Z,1.83
2018-08-14T22:53:28.103Z,2.07
2018-08-14T22:55:57.314Z,2.00
2018-08-14T22:58:26.540Z,1.92
2018-08-14T23:00:55.774Z,2.17
2018-08-14T23:03:24.983Z,1.97
2018-08-14T23:05:54.225Z,1.70
2018-08-14T23:08:23.548Z,1.97
2018-08-14T23:10:52.795Z,2.10
2018-08-14T23:13:21.994Z,2.10
2018-08-14T23:15:56.327Z,2.03
2018-08-14T23:18:25.566Z,2.30
2018-08-14T23:20:54.787Z,1.93
2018-08-14T23:23:25.239Z,2.00
2018-08-14T23:25:54.455Z,1.90
2018-08-14T23:28:23.699Z,1.97
2018-08-14T23:30:52.910Z,1.80
2018-08-14T23:33:22.137Z,2.10
2018-08-14T23:35:51.374Z,1.90
2018-08-14T23:38:20.598Z,2.00
2018-08-14T23:40:49.861Z,2.10
2018-08-14T23:43:19.089Z,2.03
2018-08-14T23:45:48.302Z,1.90
2018-08-14T23:48:17.529Z,2.10
2018-08-14T23:50:46.771Z,2.17
2018-08-14T23:53:15.977Z,1.95
2018-08-14T23:55:45.194Z,2.10
2018-08-14T23:58:14.442Z,2.10
